createdAt,value
2022-08-31T00:00:50.198Z,15.45
2022-08-31T00:01:50.258Z,15.45
2022-08-31T00:02:50.267Z,15.45
2022-08-31T00:03:50.250Z,15.44
2022-08-31T00:04:50.363Z,15.43
2022-08-31T00:05:50.339Z,15.41
2022-08-31T00:06:53.775Z,15.37
2022-08-31T00:07:50.458Z,15.39
2022-08-31T00:08:50.518Z,15.37
2022-08-31T00:09:50.568Z,15.36
2022-08-31T00:10:50.609Z,15.33
2022-08-31T00:11:50.609Z,15.30
2022-08-31T00:12:50.659Z,15.29
2022-08-31T00:13:50.700Z,15.27
2022-08-31T00:14:50.775Z,15.27
2022-08-31T00:15:50.820Z,15.26
2022-08-31T00:16:50.985Z,15.27
2022-08-31T00:17:50.901Z,15.23
2022-08-31T00:18:50.941Z,15.22
2022-08-31T00:19:51.011Z,15.17
2022-08-31T00:20:51.071Z,15.14
2022-08-31T00:21:51.112Z,15.12
2022-08-31T00:22:51.167Z,15.11
2022-08-31T00:23:51.212Z,15.11
2022-08-31T00:24:51.252Z,15.08
2022-08-31T00:25:51.315Z,15.07
2022-08-31T00:26:51.363Z,15.05
2022-08-31T00:27:51.415Z,15.02
2022-08-31T00:28:51.463Z,14.97
2022-08-31T00:29:51.504Z,14.97
2022-08-31T00:30:51.565Z,14.96
2022-08-31T00:31:51.693Z,14.97
2022-08-31T00:32:51.656Z,14.94
2022-08-31T00:33:51.685Z,14.94
2022-08-31T00:34:51.657Z,14.92
2022-08-31T00:35:51.695Z,14.89
2022-08-31T00:36:51.736Z,14.87
2022-08-31T00:37:51.787Z,14.85
2022-08-31T00:38:51.837Z,14.85
2022-08-31T00:39:51.897Z,14.82
2022-08-31T00:40:52.064Z,14.81
2022-08-31T00:41:51.949Z,14.81
2022-08-31T00:42:51.992Z,14.78
2022-08-31T00:43:52.030Z,14.79
2022-08-31T00:44:52.082Z,14.77
2022-08-31T00:45:52.215Z,14.73
2022-08-31T00:46:52.169Z,14.68
2022-08-31T00:47:52.211Z,14.66
2022-08-31T00:48:52.270Z,14.63
2022-08-31T00:49:52.319Z,14.62
2022-08-31T00:50:52.360Z,14.63
2022-08-31T00:51:52.329Z,14.66
2022-08-31T00:52:52.382Z,14.68
2022-08-31T00:53:52.430Z,14.67
2022-08-31T00:54:52.471Z,14.67
2022-08-31T00:55:52.551Z,14.67
2022-08-31T00:56:52.522Z,14.67
2022-08-31T00:57:52.583Z,14.63
2022-08-31T00:58:54.373Z,14.61
2022-08-31T00:59:52.644Z,14.59
2022-08-31T01:00:52.746Z,14.56
2022-08-31T01:01:52.734Z,14.55
2022-08-31T01:02:52.706Z,14.56
2022-08-31T01:03:52.761Z,14.53
2022-08-31T01:04:52.814Z,14.51
2022-08-31T01:05:52.864Z,14.49
2022-08-31T01:06:52.923Z,14.48
2022-08-31T01:07:52.975Z,14.49
2022-08-31T01:08:53.044Z,14.44
2022-08-31T01:09:55.512Z,14.43
2022-08-31T01:10:53.095Z,14.40
2022-08-31T01:11:53.146Z,14.38
2022-08-31T01:12:53.198Z,14.38
2022-08-31T01:13:53.267Z,14.37
2022-08-31T01:14:53.247Z,14.36
2022-08-31T01:15:54.160Z,14.33
2022-08-31T01:16:53.341Z,14.34
2022-08-31T01:17:53.379Z,14.33
2022-08-31T01:18:53.449Z,14.33
2022-08-31T01:19:53.418Z,14.33
2022-08-31T01:20:53.488Z,14.30
2022-08-31T01:21:53.540Z,14.28
2022-08-31T01:22:53.609Z,14.28
2022-08-31T01:23:53.589Z,14.26
2022-08-31T01:24:53.649Z,14.26
2022-08-31T01:25:53.722Z,14.28
2022-08-31T01:26:55.700Z,14.30
2022-08-31T01:27:53.751Z,14.26
2022-08-31T01:28:53.799Z,14.26
2022-08-31T01:29:53.841Z,14.26
2022-08-31T01:30:53.901Z,14.26
2022-08-31T01:31:53.992Z,14.30
2022-08-31T01:32:54.011Z,14.36
2022-08-31T01:33:53.974Z,14.38
2022-08-31T01:34:54.032Z,14.40
2022-08-31T01:35:54.082Z,14.43
2022-08-31T01:36:54.134Z,14.45
2022-08-31T01:37:54.193Z,14.51
2022-08-31T01:38:54.252Z,14.49
2022-08-31T01:39:54.294Z,14.41
2022-08-31T01:40:54.345Z,14.38
2022-08-31T01:41:54.415Z,14.37
2022-08-31T01:42:54.465Z,14.40
2022-08-31T01:43:54.526Z,14.40
2022-08-31T01:44:54.568Z,14.37
2022-08-31T01:45:54.614Z,14.34
2022-08-31T01:46:54.763Z,14.33
2022-08-31T01:47:54.676Z,14.33
2022-08-31T01:48:54.746Z,14.33
2022-08-31T01:49:56.101Z,14.33
2022-08-31T01:50:54.809Z,14.31
2022-08-31T01:51:54.857Z,14.30
2022-08-31T01:52:54.897Z,14.23
2022-08-31T01:53:54.970Z,14.22
2022-08-31T01:54:54.954Z,14.20
2022-08-31T01:55:55.002Z,14.18
2022-08-31T01:56:55.073Z,14.18
2022-08-31T01:57:55.118Z,14.08
2022-08-31T01:58:55.187Z,14.05
2022-08-31T01:59:55.230Z,14.07
2022-08-31T02:00:55.386Z,14.05
2022-08-31T02:01:55.353Z,14.07
2022-08-31T02:02:55.321Z,14.05
2022-08-31T02:03:57.157Z,14.07
2022-08-31T02:04:55.438Z,14.07
2022-08-31T02:07:05.696Z,14.01
2022-08-31T02:08:05.729Z,13.97
2022-08-31T02:09:05.756Z,13.94
2022-08-31T02:10:05.789Z,13.86
2022-08-31T02:11:05.838Z,13.83
2022-08-31T02:12:05.880Z,13.82
2022-08-31T02:13:05.918Z,13.80
2022-08-31T02:14:05.969Z,13.78
2022-08-31T02:15:05.999Z,13.78
2022-08-31T02:16:06.071Z,13.75
2022-08-31T02:17:06.031Z,13.78
2022-08-31T02:18:06.072Z,13.79
2022-08-31T02:19:06.130Z,13.79
2022-08-31T02:20:06.167Z,13.79
2022-08-31T02:21:06.201Z,13.79
2022-08-31T02:22:06.241Z,13.82
2022-08-31T02:23:06.271Z,13.83
2022-08-31T02:24:06.331Z,13.85
2022-08-31T02:25:06.362Z,13.86
2022-08-31T02:26:06.431Z,13.86
2022-08-31T02:27:06.462Z,13.87
2022-08-31T02:28:06.502Z,13.89
2022-08-31T02:29:06.541Z,13.87
2022-08-31T02:30:06.572Z,13.89
2022-08-31T02:31:06.707Z,13.94
2022-08-31T02:32:06.612Z,13.94
2022-08-31T02:33:06.655Z,13.94
2022-08-31T02:34:06.694Z,13.95
2022-08-31T02:35:06.737Z,13.95
2022-08-31T02:36:06.793Z,13.97
2022-08-31T02:37:06.850Z,13.98
2022-08-31T02:38:06.846Z,14.00
2022-08-31T02:39:06.888Z,14.00
2022-08-31T02:40:06.968Z,14.00
2022-08-31T02:41:06.979Z,14.00
2022-08-31T02:42:07.005Z,13.98
2022-08-31T02:43:07.006Z,14.00
2022-08-31T02:44:07.067Z,14.03
2022-08-31T02:45:07.105Z,14.01
2022-08-31T02:46:07.185Z,14.03
2022-08-31T02:47:07.177Z,14.04
2022-08-31T02:48:07.246Z,14.04
2022-08-31T02:49:07.277Z,14.04
2022-08-31T02:50:07.319Z,14.05
2022-08-31T02:51:07.358Z,14.05
2022-08-31T02:52:07.400Z,14.07
2022-08-31T02:53:07.461Z,14.12
2022-08-31T02:54:07.430Z,14.12
2022-08-31T02:55:07.479Z,14.13
2022-08-31T02:56:07.521Z,14.13
2022-08-31T02:57:07.560Z,14.15
2022-08-31T02:58:07.611Z,14.13
2022-08-31T02:59:07.670Z,14.16
2022-08-31T03:00:07.766Z,14.15
2022-08-31T03:01:07.834Z,14.15
2022-08-31T03:02:07.837Z,14.15
2022-08-31T03:03:07.918Z,14.12
2022-08-31T03:04:07.813Z,14.11
2022-08-31T03:05:07.865Z,14.08
2022-08-31T03:06:07.914Z,14.07
2022-08-31T03:07:07.953Z,14.07
2022-08-31T03:08:07.993Z,14.07
2022-08-31T03:09:08.034Z,14.11
2022-08-31T03:10:08.075Z,14.11
2022-08-31T03:11:08.145Z,14.12
2022-08-31T03:12:08.105Z,14.12
2022-08-31T03:13:08.155Z,14.13
2022-08-31T03:14:08.207Z,14.15
2022-08-31T03:15:08.261Z,14.15
2022-08-31T03:16:08.384Z,14.13
2022-08-31T03:17:08.364Z,14.15
2022-08-31T03:18:08.407Z,14.12
2022-08-31T03:19:08.456Z,14.12
2022-08-31T03:20:08.497Z,14.13
2022-08-31T03:21:08.566Z,14.15
2022-08-31T03:22:08.631Z,14.15
2022-08-31T03:23:08.669Z,14.18
2022-08-31T03:24:08.669Z,14.19
2022-08-31T03:25:08.718Z,14.20
2022-08-31T03:26:08.769Z,14.23
2022-08-31T03:27:08.839Z,14.23
2022-08-31T03:28:08.882Z,14.23
2022-08-31T03:29:08.930Z,14.22
2022-08-31T03:30:08.970Z,14.20
2022-08-31T03:31:09.072Z,14.22
2022-08-31T03:32:09.051Z,14.19
2022-08-31T03:33:09.091Z,14.18
2022-08-31T03:34:09.142Z,14.18
2022-08-31T03:35:09.201Z,14.16
2022-08-31T03:36:09.180Z,14.15
2022-08-31T03:37:09.230Z,14.16
2022-08-31T03:38:09.282Z,14.12
2022-08-31T03:39:09.336Z,14.12
2022-08-31T03:40:09.424Z,14.11
2022-08-31T03:41:09.394Z,14.11
2022-08-31T03:42:09.433Z,14.08
2022-08-31T03:43:09.483Z,14.04
2022-08-31T03:44:09.516Z,14.04
2022-08-31T03:45:09.576Z,14.03
2022-08-31T03:46:12.292Z,14.03
2022-08-31T03:47:09.604Z,14.00
2022-08-31T03:48:12.585Z,13.98
2022-08-31T03:49:09.675Z,13.97
2022-08-31T03:50:09.725Z,13.97
2022-08-31T03:51:09.765Z,13.95
2022-08-31T03:52:09.804Z,13.94
2022-08-31T03:53:09.843Z,13.93
2022-08-31T03:54:09.908Z,13.91
2022-08-31T03:55:09.967Z,13.87
2022-08-31T03:56:10.007Z,13.86
2022-08-31T03:57:10.046Z,13.85
2022-08-31T03:58:10.077Z,13.85
2022-08-31T03:59:10.128Z,13.83
2022-08-31T04:00:10.176Z,13.82
2022-08-31T04:01:10.247Z,13.80
2022-08-31T04:02:10.348Z,13.79
2022-08-31T04:03:10.352Z,13.78
2022-08-31T04:04:10.299Z,13.79
2022-08-31T04:05:10.363Z,13.78
2022-08-31T04:06:10.400Z,13.78
2022-08-31T04:07:10.459Z,13.79
2022-08-31T04:08:10.510Z,13.78
2022-08-31T04:09:10.521Z,13.79
2022-08-31T04:10:10.581Z,13.80
2022-08-31T04:11:10.601Z,13.80
2022-08-31T04:12:10.652Z,13.80
2022-08-31T04:13:10.723Z,13.80
2022-08-31T04:14:10.712Z,13.82
2022-08-31T04:15:10.712Z,13.79
2022-08-31T04:16:10.859Z,13.79
2022-08-31T04:17:10.804Z,13.78
2022-08-31T04:18:10.893Z,13.75
2022-08-31T04:19:10.873Z,13.71
2022-08-31T04:20:10.943Z,13.75
2022-08-31T04:21:10.934Z,13.73
2022-08-31T04:22:10.995Z,13.73
2022-08-31T04:23:11.159Z,13.73
2022-08-31T04:24:11.095Z,13.73
2022-08-31T04:25:11.164Z,13.71
2022-08-31T04:26:11.195Z,13.68
2022-08-31T04:27:11.229Z,13.67
2022-08-31T04:28:11.246Z,13.67
2022-08-31T04:29:13.560Z,13.64
2022-08-31T04:30:11.321Z,13.61
2022-08-31T04:31:11.437Z,13.60
2022-08-31T04:32:11.464Z,13.60
2022-08-31T04:33:11.574Z,13.60
2022-08-31T04:34:11.517Z,13.62
2022-08-31T04:35:11.506Z,13.64
2022-08-31T04:36:11.579Z,13.64
2022-08-31T04:37:11.578Z,13.62
2022-08-31T04:38:12.110Z,13.61
2022-08-31T04:39:11.579Z,13.62
2022-08-31T04:40:11.664Z,13.60
2022-08-31T04:41:11.619Z,13.60
2022-08-31T04:42:11.630Z,13.57
2022-08-31T04:43:11.735Z,13.57
2022-08-31T04:44:14.390Z,13.55
2022-08-31T04:45:11.752Z,13.55
2022-08-31T04:46:11.790Z,13.55
2022-08-31T04:47:11.783Z,13.55
2022-08-31T04:48:11.810Z,13.58
2022-08-31T04:49:11.811Z,13.60
2022-08-31T04:50:11.812Z,13.60
2022-08-31T04:51:11.812Z,13.61
2022-08-31T04:52:11.799Z,13.62
2022-08-31T04:53:11.825Z,13.64
2022-08-31T04:54:11.853Z,13.65
2022-08-31T04:55:11.846Z,13.67
2022-08-31T04:56:11.865Z,13.68
2022-08-31T04:57:11.924Z,13.73
2022-08-31T04:58:11.964Z,13.73
2022-08-31T04:59:12.011Z,13.75
2022-08-31T05:00:12.007Z,13.75
2022-08-31T05:01:12.109Z,13.78
2022-08-31T05:02:12.198Z,13.82
2022-08-31T05:03:12.197Z,13.80
2022-08-31T05:04:12.175Z,13.83
2022-08-31T05:05:12.179Z,13.87
2022-08-31T05:06:12.226Z,13.87
2022-08-31T05:07:12.258Z,13.89
2022-08-31T05:08:12.257Z,13.93
2022-08-31T05:09:12.297Z,13.94
2022-08-31T05:10:12.341Z,13.97
2022-08-31T05:11:12.317Z,14.00
2022-08-31T05:12:12.319Z,14.04
2022-08-31T05:13:12.316Z,14.03
2022-08-31T05:14:12.348Z,14.05
2022-08-31T05:15:12.389Z,14.07
2022-08-31T05:16:12.496Z,14.11
2022-08-31T05:17:14.902Z,14.12
2022-08-31T05:18:12.481Z,14.18
2022-08-31T05:19:12.521Z,14.20
2022-08-31T05:20:12.555Z,14.25
2022-08-31T05:21:12.625Z,14.30
2022-08-31T05:22:12.609Z,14.33
2022-08-31T05:23:12.681Z,14.40
2022-08-31T05:24:12.753Z,14.45
2022-08-31T05:25:12.734Z,14.53
2022-08-31T05:26:12.722Z,14.59
2022-08-31T05:27:12.783Z,14.66
2022-08-31T05:28:12.853Z,14.70
2022-08-31T05:29:12.854Z,14.79
2022-08-31T05:30:12.861Z,14.79
2022-08-31T05:31:12.934Z,14.87
2022-08-31T05:32:12.914Z,14.90
2022-08-31T05:33:12.949Z,14.97
2022-08-31T05:34:12.928Z,15.04
2022-08-31T05:35:13.015Z,15.11
2022-08-31T05:36:12.995Z,15.18
2022-08-31T05:37:13.036Z,15.23
2022-08-31T05:38:13.087Z,15.32
2022-08-31T05:39:13.128Z,15.33
2022-08-31T05:40:13.246Z,15.43
2022-08-31T05:41:13.217Z,15.44
2022-08-31T05:42:13.211Z,15.41
2022-08-31T05:43:13.269Z,15.41
2022-08-31T05:44:13.248Z,15.43
2022-08-31T05:45:13.310Z,15.41
2022-08-31T05:46:13.497Z,15.35
2022-08-31T05:47:13.409Z,15.35
2022-08-31T05:48:13.400Z,15.36
2022-08-31T05:49:13.391Z,15.30
2022-08-31T05:50:13.451Z,15.27
2022-08-31T05:51:13.430Z,15.27
2022-08-31T05:52:13.511Z,15.30
2022-08-31T05:53:13.552Z,15.36
2022-08-31T05:54:13.611Z,15.39
2022-08-31T05:55:13.682Z,15.43
2022-08-31T05:56:13.723Z,15.41
2022-08-31T05:57:13.731Z,15.45
2022-08-31T05:58:13.773Z,15.50
2022-08-31T05:59:13.791Z,15.55
2022-08-31T06:00:13.804Z,15.59
2022-08-31T06:01:13.856Z,15.62
2022-08-31T06:02:13.943Z,15.76
2022-08-31T06:03:13.956Z,16.25
2022-08-31T06:04:13.959Z,16.76
2022-08-31T06:05:14.062Z,17.04
2022-08-31T06:06:14.065Z,17.23
2022-08-31T06:07:14.125Z,17.32
2022-08-31T06:08:15.391Z,17.57
2022-08-31T06:09:14.196Z,17.69
2022-08-31T06:10:14.237Z,17.91
2022-08-31T06:11:14.326Z,18.06
2022-08-31T06:12:14.358Z,17.90
2022-08-31T06:13:14.433Z,17.93
2022-08-31T06:14:14.404Z,17.78
2022-08-31T06:15:14.410Z,17.34
2022-08-31T06:16:14.467Z,17.16
2022-08-31T06:17:14.499Z,16.98
2022-08-31T06:18:14.510Z,16.86
2022-08-31T06:19:15.269Z,17.04
2022-08-31T06:20:17.770Z,17.42
2022-08-31T06:21:14.532Z,17.63
2022-08-31T06:22:14.591Z,17.95
2022-08-31T06:23:14.672Z,18.36
2022-08-31T06:24:14.644Z,18.63
2022-08-31T06:25:14.684Z,18.76
2022-08-31T06:26:14.727Z,18.37
2022-08-31T06:27:14.724Z,17.97
2022-08-31T06:28:14.724Z,17.63
2022-08-31T06:29:14.744Z,17.31
2022-08-31T06:30:14.748Z,17.30
2022-08-31T06:31:14.787Z,17.60
2022-08-31T06:32:14.797Z,17.59
2022-08-31T06:33:14.874Z,17.49
2022-08-31T06:34:14.807Z,17.30
2022-08-31T06:35:14.807Z,17.13
2022-08-31T06:36:14.858Z,16.99
2022-08-31T06:37:19.177Z,16.87
2022-08-31T06:38:14.840Z,16.73
2022-08-31T06:39:14.859Z,16.69
2022-08-31T06:40:14.895Z,16.64
2022-08-31T06:41:14.889Z,16.62
2022-08-31T06:42:14.890Z,16.58
2022-08-31T06:43:14.943Z,16.55
2022-08-31T06:44:15.021Z,16.44
2022-08-31T06:45:15.001Z,16.46
2022-08-31T06:46:15.036Z,16.36
2022-08-31T06:47:15.044Z,16.28
2022-08-31T06:48:15.102Z,16.36
2022-08-31T06:49:15.113Z,16.39
2022-08-31T06:50:15.124Z,16.49
2022-08-31T06:51:15.133Z,16.64
2022-08-31T06:52:15.156Z,16.73
2022-08-31T06:53:15.155Z,16.84
2022-08-31T06:54:30.981Z,16.97
2022-08-31T06:55:15.165Z,17.14
2022-08-31T06:56:21.019Z,17.28
2022-08-31T06:57:15.196Z,17.28
2022-08-31T06:58:15.226Z,17.32
2022-08-31T06:59:15.271Z,17.30
2022-08-31T07:00:15.257Z,17.38
2022-08-31T07:01:15.907Z,17.56
2022-08-31T07:02:15.415Z,17.49
2022-08-31T07:03:15.408Z,17.46
2022-08-31T07:04:15.449Z,17.39
2022-08-31T07:05:15.770Z,17.22
2022-08-31T07:06:15.418Z,17.05
2022-08-31T07:07:15.419Z,17.01
2022-08-31T07:08:15.456Z,17.04
2022-08-31T07:09:15.450Z,17.16
2022-08-31T07:10:15.469Z,17.20
2022-08-31T07:11:15.471Z,17.20
2022-08-31T07:12:15.513Z,17.24
2022-08-31T07:13:15.581Z,17.38
2022-08-31T07:14:15.613Z,17.52
2022-08-31T07:15:15.640Z,17.54
2022-08-31T07:16:15.785Z,17.52
2022-08-31T07:17:15.743Z,17.53
2022-08-31T07:18:15.899Z,17.63
2022-08-31T07:19:15.827Z,17.73
2022-08-31T07:20:15.813Z,17.82
2022-08-31T07:21:15.834Z,17.88
2022-08-31T07:22:15.845Z,17.94
2022-08-31T07:23:15.918Z,17.84
2022-08-31T07:24:15.875Z,17.78
2022-08-31T07:25:15.876Z,17.72
2022-08-31T07:26:15.896Z,17.68
2022-08-31T07:27:15.925Z,17.72
2022-08-31T07:28:15.954Z,17.82
2022-08-31T07:29:15.962Z,17.94
2022-08-31T07:30:15.980Z,18.02
2022-08-31T07:31:16.063Z,18.24
2022-08-31T07:32:16.027Z,18.66
2022-08-31T07:33:16.029Z,18.71
2022-08-31T07:34:16.049Z,18.83
2022-08-31T07:35:16.110Z,18.89
2022-08-31T07:36:16.162Z,18.94
2022-08-31T07:37:16.130Z,19.12
2022-08-31T07:38:16.160Z,19.34
2022-08-31T07:39:16.175Z,19.26
2022-08-31T07:40:16.239Z,19.32
2022-08-31T07:41:16.242Z,19.29
2022-08-31T07:42:16.234Z,19.23
2022-08-31T07:43:16.242Z,19.19
2022-08-31T07:44:16.314Z,19.20
2022-08-31T07:45:16.348Z,19.35
2022-08-31T07:46:16.460Z,19.71
2022-08-31T07:47:16.374Z,19.67
2022-08-31T07:48:16.366Z,19.67
2022-08-31T07:49:16.395Z,19.57
2022-08-31T07:50:16.445Z,19.59
2022-08-31T07:51:16.448Z,19.60
2022-08-31T07:52:16.485Z,19.81
2022-08-31T07:53:16.534Z,20.34
2022-08-31T07:54:16.548Z,20.53
2022-08-31T07:55:16.598Z,20.83
2022-08-31T07:56:16.657Z,21.29
2022-08-31T07:57:16.699Z,21.81
2022-08-31T07:58:16.790Z,22.61
2022-08-31T07:59:16.809Z,22.55
2022-08-31T08:00:16.896Z,21.80
2022-08-31T08:01:16.932Z,21.48
2022-08-31T08:02:17.718Z,21.45
2022-08-31T08:03:17.244Z,21.88
2022-08-31T08:04:17.030Z,22.52
2022-08-31T08:05:17.073Z,22.84
2022-08-31T08:06:17.134Z,22.44
2022-08-31T08:07:17.193Z,22.76
2022-08-31T08:08:17.263Z,22.95
2022-08-31T08:09:24.428Z,23.52
2022-08-31T08:10:17.305Z,23.70
2022-08-31T08:11:17.343Z,23.86
2022-08-31T08:12:17.378Z,24.11
2022-08-31T08:13:17.502Z,24.13
2022-08-31T08:14:17.467Z,23.77
2022-08-31T08:15:18.180Z,23.63
2022-08-31T08:16:17.500Z,23.14
2022-08-31T08:17:17.459Z,23.13
2022-08-31T08:18:17.499Z,23.55
2022-08-31T08:19:17.564Z,23.84
2022-08-31T08:20:17.608Z,23.92
2022-08-31T08:21:17.646Z,24.00
2022-08-31T08:22:35.616Z,24.21
2022-08-31T08:23:18.302Z,24.06
2022-08-31T08:24:17.752Z,24.24
2022-08-31T08:25:17.773Z,24.26
2022-08-31T08:26:21.613Z,24.51
2022-08-31T08:27:17.803Z,24.94
2022-08-31T08:29:17.893Z,24.85
2022-08-31T08:30:17.924Z,24.85
2022-08-31T08:31:18.006Z,24.25
2022-08-31T08:32:18.001Z,24.37
2022-08-31T08:33:18.664Z,24.31
2022-08-31T08:34:18.077Z,24.36
2022-08-31T08:35:18.821Z,24.62
2022-08-31T08:36:18.184Z,24.63
2022-08-31T08:37:18.119Z,24.69
2022-08-31T08:38:18.158Z,25.07
2022-08-31T08:39:18.189Z,24.88
2022-08-31T08:40:18.243Z,24.00
2022-08-31T08:41:18.190Z,24.01
2022-08-31T08:42:18.222Z,23.76
2022-08-31T08:43:18.396Z,23.59
2022-08-31T08:44:18.413Z,23.36
2022-08-31T08:45:18.244Z,22.96
2022-08-31T08:46:33.834Z,22.84
2022-08-31T08:47:18.304Z,22.70
2022-08-31T08:48:18.303Z,22.86
2022-08-31T08:49:18.315Z,22.99
2022-08-31T08:50:18.355Z,23.29
2022-08-31T08:51:18.414Z,23.20
2022-08-31T08:52:18.404Z,23.11
2022-08-31T08:53:18.525Z,22.71
2022-08-31T08:54:18.505Z,22.71
2022-08-31T08:55:18.637Z,22.37
2022-08-31T08:56:32.830Z,21.91
2022-08-31T08:57:18.629Z,21.94
2022-08-31T08:58:18.649Z,21.96
2022-08-31T08:59:20.180Z,22.07
2022-08-31T09:00:18.752Z,22.03
2022-08-31T09:01:18.777Z,22.06
2022-08-31T09:02:18.825Z,22.08
2022-08-31T09:03:18.889Z,21.94
2022-08-31T09:04:18.872Z,21.94
2022-08-31T09:05:18.929Z,22.38
2022-08-31T09:06:18.992Z,22.71
2022-08-31T09:07:18.943Z,23.07
2022-08-31T09:08:18.943Z,23.23
2022-08-31T09:09:19.008Z,23.39
2022-08-31T09:10:19.069Z,23.62
2022-08-31T09:11:19.063Z,23.62
2022-08-31T09:12:19.099Z,24.00
2022-08-31T09:13:19.273Z,24.56
2022-08-31T09:14:19.131Z,25.12
2022-08-31T09:15:19.186Z,25.21
2022-08-31T09:16:19.205Z,25.22
2022-08-31T09:17:19.178Z,25.55
2022-08-31T09:18:19.230Z,25.54
2022-08-31T09:19:19.268Z,25.70
2022-08-31T09:20:19.310Z,25.41
2022-08-31T09:21:19.380Z,25.39
2022-08-31T09:22:19.428Z,25.54
2022-08-31T09:23:19.607Z,25.43
2022-08-31T09:24:19.443Z,24.77
2022-08-31T09:25:19.472Z,24.41
2022-08-31T09:26:19.505Z,24.31
2022-08-31T09:27:19.489Z,24.18
2022-08-31T09:28:19.545Z,24.26
2022-08-31T09:29:19.533Z,24.22
2022-08-31T09:30:19.575Z,23.95
2022-08-31T09:31:19.678Z,24.13
2022-08-31T09:32:19.646Z,24.29
2022-08-31T09:33:19.846Z,24.24
2022-08-31T09:34:19.675Z,24.18
2022-08-31T09:35:19.740Z,24.34
2022-08-31T09:36:19.788Z,24.63
2022-08-31T09:37:19.838Z,24.66
2022-08-31T09:38:19.877Z,24.24
2022-08-31T09:39:19.920Z,24.48
2022-08-31T09:40:23.245Z,24.74
2022-08-31T09:41:20.040Z,24.84
2022-08-31T09:42:20.052Z,24.78
2022-08-31T09:43:20.319Z,24.63
2022-08-31T09:44:20.152Z,24.77
2022-08-31T09:45:20.215Z,25.39
2022-08-31T09:46:20.216Z,25.04
2022-08-31T09:47:20.244Z,25.00
2022-08-31T09:48:20.285Z,25.34
2022-08-31T09:49:20.293Z,25.39
2022-08-31T09:50:20.285Z,25.04
2022-08-31T09:51:20.265Z,24.89
2022-08-31T09:52:20.314Z,25.22
2022-08-31T09:53:20.525Z,25.59
2022-08-31T09:54:20.317Z,26.06
2022-08-31T09:55:20.386Z,26.10
2022-08-31T09:56:20.359Z,25.61
2022-08-31T09:57:20.407Z,25.46
2022-08-31T09:58:20.435Z,24.93
2022-08-31T09:59:20.430Z,24.78
2022-08-31T10:00:20.491Z,24.71
2022-08-31T10:01:20.598Z,25.37
2022-08-31T10:02:20.581Z,25.85
2022-08-31T10:03:21.375Z,25.99
2022-08-31T10:04:20.633Z,26.04
2022-08-31T10:05:20.707Z,26.26
2022-08-31T10:06:20.683Z,26.39
2022-08-31T10:07:20.654Z,26.29
2022-08-31T10:08:20.684Z,26.42
2022-08-31T10:09:20.705Z,25.98
2022-08-31T10:10:30.348Z,25.99
2022-08-31T10:11:20.755Z,26.27
2022-08-31T10:12:20.846Z,26.56
2022-08-31T10:13:20.918Z,26.34
2022-08-31T10:14:20.808Z,25.93
2022-08-31T10:15:20.896Z,26.29
2022-08-31T10:16:20.927Z,26.34
2022-08-31T10:17:20.898Z,26.81
2022-08-31T10:18:20.968Z,26.42
2022-08-31T10:19:21.000Z,25.95
2022-08-31T10:20:21.069Z,26.04
2022-08-31T10:21:21.100Z,25.93
2022-08-31T10:22:21.091Z,25.80
2022-08-31T10:23:21.229Z,25.29
2022-08-31T10:24:21.122Z,25.37
2022-08-31T10:25:21.155Z,25.49
2022-08-31T10:26:21.132Z,25.88
2022-08-31T10:27:21.184Z,26.23
2022-08-31T10:28:21.216Z,26.23
2022-08-31T10:29:23.207Z,26.03
2022-08-31T10:30:21.265Z,25.67
2022-08-31T10:31:21.410Z,25.41
2022-08-31T10:32:21.307Z,25.55
2022-08-31T10:33:21.456Z,25.71
2022-08-31T10:34:21.394Z,26.31
2022-08-31T10:35:21.373Z,26.42
2022-08-31T10:36:21.459Z,25.81
2022-08-31T10:37:21.439Z,25.83
2022-08-31T10:38:21.476Z,25.59
2022-08-31T10:39:21.459Z,25.70
2022-08-31T10:40:21.581Z,25.66
2022-08-31T10:41:21.571Z,25.77
2022-08-31T10:42:21.631Z,25.95
2022-08-31T10:43:21.807Z,25.73
2022-08-31T10:44:21.752Z,25.61
2022-08-31T10:45:21.673Z,25.22
2022-08-31T10:46:21.836Z,24.99
2022-08-31T10:47:33.843Z,24.78
2022-08-31T10:48:21.834Z,24.61
2022-08-31T10:49:21.855Z,24.79
2022-08-31T10:50:21.895Z,25.09
2022-08-31T10:51:21.915Z,25.30
2022-08-31T10:52:21.916Z,25.56
2022-08-31T10:53:21.977Z,25.31
2022-08-31T10:54:22.095Z,24.62
2022-08-31T10:55:21.997Z,24.41
2022-08-31T10:56:24.063Z,24.18
2022-08-31T10:57:22.555Z,24.32
2022-08-31T10:58:22.125Z,24.46
2022-08-31T10:59:22.128Z,24.78
2022-08-31T11:00:22.190Z,24.82
2022-08-31T11:01:22.294Z,24.68
2022-08-31T11:02:22.213Z,24.77
2022-08-31T11:03:22.231Z,24.47
2022-08-31T11:04:22.332Z,24.48
2022-08-31T11:05:22.326Z,24.38
2022-08-31T11:06:22.354Z,24.37
2022-08-31T11:07:22.380Z,25.19
2022-08-31T11:08:22.446Z,25.70
2022-08-31T11:09:22.511Z,25.22
2022-08-31T11:10:22.506Z,25.49
2022-08-31T11:11:22.541Z,26.07
2022-08-31T11:12:22.545Z,25.86
2022-08-31T11:13:22.687Z,25.81
2022-08-31T11:14:22.557Z,25.19
2022-08-31T11:15:22.645Z,25.06
2022-08-31T11:16:22.662Z,25.00
2022-08-31T11:17:22.690Z,24.88
2022-08-31T11:18:22.700Z,24.77
2022-08-31T11:19:22.676Z,24.37
2022-08-31T11:20:22.739Z,24.50
2022-08-31T11:21:22.740Z,24.36
2022-08-31T11:22:22.783Z,24.44
2022-08-31T11:23:22.811Z,24.88
2022-08-31T11:24:22.800Z,25.37
2022-08-31T11:25:23.072Z,25.81
2022-08-31T11:26:22.864Z,25.78
2022-08-31T11:27:22.892Z,25.70
2022-08-31T11:28:22.946Z,25.83
2022-08-31T11:29:22.965Z,25.92
2022-08-31T11:30:22.988Z,25.92
2022-08-31T11:31:23.041Z,25.77
2022-08-31T11:32:22.998Z,25.37
2022-08-31T11:33:23.025Z,25.03
2022-08-31T11:34:23.066Z,25.04
2022-08-31T11:35:23.047Z,25.00
2022-08-31T11:36:23.037Z,25.03
2022-08-31T11:37:23.109Z,24.78
2022-08-31T11:38:23.118Z,24.89
2022-08-31T11:39:23.160Z,25.01
2022-08-31T11:40:23.303Z,24.77
2022-08-31T11:41:23.250Z,24.24
2022-08-31T11:42:23.269Z,24.04
2022-08-31T11:43:23.274Z,24.14
2022-08-31T11:44:23.423Z,24.13
2022-08-31T11:45:23.334Z,24.37
2022-08-31T11:46:23.338Z,24.75
2022-08-31T11:47:23.351Z,24.66
2022-08-31T11:48:23.384Z,24.53
2022-08-31T11:49:23.415Z,24.59
2022-08-31T11:50:23.465Z,24.69
2022-08-31T11:51:23.484Z,25.03
2022-08-31T11:52:23.495Z,25.15
2022-08-31T11:53:23.525Z,24.88
2022-08-31T11:54:23.556Z,24.43
2022-08-31T11:55:23.567Z,24.26
2022-08-31T11:56:23.696Z,24.51
2022-08-31T11:57:23.636Z,24.86
2022-08-31T11:58:23.688Z,25.09
2022-08-31T11:59:23.689Z,25.15
2022-08-31T12:00:24.748Z,25.34
2022-08-31T12:01:23.781Z,25.24
2022-08-31T12:02:23.955Z,25.78
2022-08-31T12:03:23.880Z,26.04
2022-08-31T12:04:23.950Z,26.07
2022-08-31T12:05:23.983Z,26.04
2022-08-31T12:06:23.960Z,26.11
2022-08-31T12:07:24.035Z,26.29
2022-08-31T12:08:24.014Z,26.41
2022-08-31T12:09:24.073Z,26.29
2022-08-31T12:10:26.745Z,25.95
2022-08-31T12:11:24.183Z,26.01
2022-08-31T12:12:24.225Z,26.24
2022-08-31T12:13:24.280Z,26.49
2022-08-31T12:14:24.296Z,26.46
2022-08-31T12:15:24.377Z,26.51
2022-08-31T12:16:24.491Z,26.39
2022-08-31T12:17:24.416Z,26.44
2022-08-31T12:18:24.428Z,26.61
2022-08-31T12:19:24.559Z,26.67
2022-08-31T12:20:24.542Z,26.66
2022-08-31T12:21:24.550Z,26.83
2022-08-31T12:22:24.611Z,26.98
2022-08-31T12:23:24.695Z,26.78
2022-08-31T12:24:24.672Z,26.41
2022-08-31T12:25:24.807Z,25.78
2022-08-31T12:26:24.740Z,25.49
2022-08-31T12:27:24.724Z,25.66
2022-08-31T12:28:29.242Z,25.83
2022-08-31T12:29:24.890Z,25.92
2022-08-31T12:30:24.845Z,26.24
2022-08-31T12:31:24.955Z,26.63
2022-08-31T12:32:25.605Z,27.10
2022-08-31T12:33:24.995Z,27.03
2022-08-31T12:34:25.015Z,27.05
2022-08-31T12:35:25.732Z,26.83
2022-08-31T12:36:25.066Z,27.03
2022-08-31T12:37:25.067Z,27.35
2022-08-31T12:38:25.095Z,27.33
2022-08-31T12:39:25.098Z,27.55
2022-08-31T12:40:25.284Z,27.47
2022-08-31T12:41:25.585Z,27.16
2022-08-31T12:42:25.204Z,27.13
2022-08-31T12:43:25.230Z,26.60
2022-08-31T12:44:25.298Z,26.46
2022-08-31T12:45:25.340Z,26.16
2022-08-31T12:46:25.407Z,26.82
2022-08-31T12:47:25.364Z,27.28
2022-08-31T12:48:25.394Z,27.33
2022-08-31T12:49:25.393Z,27.67
2022-08-31T12:50:25.413Z,27.85
2022-08-31T12:51:25.474Z,27.76
2022-08-31T12:52:25.467Z,27.90
2022-08-31T12:53:25.482Z,27.97
2022-08-31T12:54:25.494Z,28.30
2022-08-31T12:55:25.528Z,28.19